CST,Max TemperatureF,Mean TemperatureF,Min TemperatureF,Max Dew PointF,MeanDew PointF,Min DewpointF,Max Humidity, Mean Humidity, Min Humidity, Max Sea Level PressureIn, Mean Sea Level PressureIn, Min Sea Level PressureIn, Max VisibilityMiles, Mean VisibilityMiles, Min VisibilityMiles, Max Wind SpeedMPH, Mean Wind SpeedMPH, Max Gust SpeedMPH,PrecipitationIn, CloudCover, Events, WindDirDegrees
2013-2-1,12,-3,-18,7,-3,-22,87,77,66,30.29,30.02,29.88,10,6,2,17,6,20,0.01,7,Snow,343
2013-2-2,31,15,-2,27,9,-7,88,81,73,30.23,30.01,29.83,10,4,0,36,17,43,0.11,7,Fog-Snow,259
2013-2-3,16,8,-1,10,7,-2,86,80,73,30.13,29.98,29.89,10,5,0,16,5,21,0.02,7,Fog-Snow,65
2013-2-4,37,18,-1,28,17,-4,91,81,70,30.06,29.78,29.61,10,6,0,22,11,29,T,6,Fog-Snow,204
2013-2-5,34,23,11,27,13,7,88,81,73,30.03,29.91,29.67,10,9,5,25,7,32,T,8,,9
2013-2-6,25,19,13,21,17,11,92,85,77,30.18,29.90,29.70,10,9,5,18,10,22,T,8,,77
2013-2-7,21,13,5,20,11,1,100,90,80,30.28,30.18,30.08,10,6,2,15,10,18,T,8,Snow,101
2013-2-8,27,24,20,24,21,18,100,91,81,30.17,30.05,29.96,10,7,2,16,8,20,0.00,8,,158
2013-2-9,29,22,14,25,17,11,96,82,68,29.96,29.90,29.86,10,6,0,14,7,15,0.00,3,Fog,224
2013-2-10,25,19,13,23,18,10,100,90,80,30.04,29.85,29.75,10,3,0,22,11,25,T,7,Fog-Snow,318
2013-2-11,24,20,16,16,13,9,88,80,71,30.11,30.00,29.83,10,8,2,22,13,26,T,6,Snow,272
2013-2-12,35,26,16,25,19,12,88,76,63,29.89,29.85,29.78,10,10,10,24,14,30,0.00,3,,249
2013-2-13,32,30,27,29,27,21,100,88,75,29.80,29.66,29.56,10,3,0,15,4,20,0.17,8,Fog-Snow,335
2013-2-14,30,22,13,28,16,8,100,86,71,30.34,30.04,29.71,10,5,0,22,14,26,0.04,7,Fog-Snow,329
2013-2-15,20,15,10,13,9,7,88,78,67,30.45,30.33,30.11,10,8,2,16,9,20,T,5,Snow,270
2013-2-16,33,26,19,25,21,14,100,86,72,30.06,29.93,29.75,10,8,2,14,6,16,T,4,Snow,179
2013-2-17,40,34,28,31,27,15,92,78,64,29.75,29.54,29.43,10,6,0,23,12,29,0.00,6,Fog-Snow,285
2013-2-18,18,5,-8,16,4,-15,92,82,71,30.43,30.04,29.69,10,5,1,30,21,38,T,6,Snow,323
2013-2-19,-4,-11,-19,-16,-20,-25,78,65,52,30.59,30.53,30.47,10,10,10,16,8,21,0.00,0,Snow,3
2013-2-20,8,-1,-11,4,-7,-19,79,72,64,30.51,30.34,30.09,10,10,9,23,15,28,0.00,5,,113
2013-2-21,21,16,10,16,13,5,88,81,73,30.25,30.16,30.07,10,4,1,15,9,22,0.03,8,Snow,130
2013-2-22,24,15,5,17,10,4,92,82,71,30.14,30.00,29.86,10,8,5,13,5,15,T,3,,144
2013-2-23,33,18,3,29,14,1,96,80,63,29.84,29.78,29.68,10,8,2,10,5,13,0.00,3,,140
2013-2-24,33,25,17,29,19,13,92,83,74,30.10,30.00,29.83,10,10,9,23,13,28,T,1,,265
2013-2-25,39,29,19,27,19,12,81,68,54,30.06,29.93,29.80,10,10,10,21,11,25,0.00,0,,210
2013-2-26,36,27,17,25,20,15,92,74,56,30.18,30.00,29.86,10,10,2,18,9,23,0.00,2,,267
2013-2-27,26,20,14,21,17,12,92,85,77,30.38,30.28,30.11,10,10,6,17,10,20,T,7,Snow,324
2013-2-28,26,21,16,20,16,12,92,83,74,30.39,30.35,30.26,10,10,9,13,5,15,0.00,8,,76